Pu Dun — V3ZV9 — position and weather

sailwx.info

Track history (hours):
 
Tides and Currents Weather Stations Pressure Air Temp Water Temp Dewpoint Dewpoint Depression Visibility Wind Speed Wind Dir Waves Ship Positions

Pu Dun

Last reported at 2017-Dec-07 22:28 UTC. Time now 2017-Dec-12 19:47 UTC.
Position N 34°22' E 130°10'.

Length 75 m; draft 4.1 m.

Type: Cargo ship. MMSI: 312615000.

Date/timePositionNaut miles runAvg speedWind from/ knotsBaromVisibWave heightAir tempDewpointWater temp
2017-Dec-07 22:28N 34°22' E 130°10'3 5.9
2017-Dec-07 21:59N 34°20' E 130°13'3 7.0
2017-Dec-07 21:30N 34°17' E 130°16'3 6.6
2017-Dec-07 21:00N 34°15' E 130°19'3 6.8
2017-Dec-07 20:30N 34°13' E 130°22'4 7.1
2017-Dec-07 20:00N 34°10' E 130°25'4 7.3
2017-Dec-07 19:30N 34°08' E 130°28'4 7.2
2017-Dec-07 19:00N 34°05' E 130°31'4 7.1
2017-Dec-07 18:30N 34°03' E 130°34'4 8.0
2017-Dec-07 18:00N 34°03' E 130°39'4 7.9
2017-Dec-07 17:30N 34°03' E 130°44'4 8.2
2017-Dec-07 17:00N 34°02' E 130°49'4 8.6
2017-Dec-07 16:30N 33°59' E 130°53'5 9.1
2017-Dec-07 16:00N 33°55' E 130°54'510.2
2017-Dec-07 15:30N 33°58' E 130°58'5 9.4
2017-Dec-07 15:00N 33°57' E 131°04'510.1
2017-Dec-07 14:30N 33°54' E 131°09'5 9.9
2017-Dec-07 14:00N 33°52' E 131°14'510.2
2017-Dec-07 13:30N 33°50' E 131°20'510.2
2017-Dec-07 13:00N 33°49' E 131°26'510.1
2017-Dec-07 12:30N 33°48' E 131°32'510.3
2017-Dec-07 12:00N 33°47' E 131°38'510.3
2017-Dec-07 11:30N 33°46' E 131°44'510.1
2017-Dec-07 11:00N 33°45' E 131°50'33 8.8
2017-Dec-07 07:17N 33°53' E 132°28'1210.5
2017-Dec-07 06:11N 34°04' E 132°34'210.4
2017-Dec-07 06:00N 34°05' E 132°35'5 9.4
2017-Dec-07 05:30N 34°10' E 132°36'3 0.4
2017-Dec-06 22:46N 34°13' E 132°36'1 2.3
2017-Dec-06 22:23N 34°12' E 132°36'1 2.5
2017-Dec-06 22:00N 34°11' E 132°36'4 7.4
2017-Dec-06 21:30N 34°08' E 132°36'4 8.7
2017-Dec-06 21:00N 34°04' E 132°34'  
Track history (hours):
 
Tides and Currents Weather Stations Pressure Air Temp Water Temp Dewpoint Dewpoint Depression Visibility Wind Speed Wind Dir Waves Ship Positions

Pu Dun

Last reported at 2017-Dec-07 22:28 UTC. Time now 2017-Dec-12 19:47 UTC.
Position N 34°22' E 130°10'.

Length 75 m; draft 4.1 m.

Type: Cargo ship. MMSI: 312615000.

Date/timePositionNaut miles runAvg speedWind from/ knotsBaromVisibWave heightAir tempDewpointWater temp
2017-Dec-07 22:28N 34°22' E 130°10'3 5.9
2017-Dec-07 21:59N 34°20' E 130°13'3 7.0
2017-Dec-07 21:30N 34°17' E 130°16'3 6.6
2017-Dec-07 21:00N 34°15' E 130°19'3 6.8
2017-Dec-07 20:30N 34°13' E 130°22'4 7.1
2017-Dec-07 20:00N 34°10' E 130°25'4 7.3
2017-Dec-07 19:30N 34°08' E 130°28'4 7.2
2017-Dec-07 19:00N 34°05' E 130°31'4 7.1
2017-Dec-07 18:30N 34°03' E 130°34'4 8.0
2017-Dec-07 18:00N 34°03' E 130°39'4 7.9
2017-Dec-07 17:30N 34°03' E 130°44'4 8.2
2017-Dec-07 17:00N 34°02' E 130°49'4 8.6
2017-Dec-07 16:30N 33°59' E 130°53'5 9.1
2017-Dec-07 16:00N 33°55' E 130°54'510.2
2017-Dec-07 15:30N 33°58' E 130°58'5 9.4
2017-Dec-07 15:00N 33°57' E 131°04'510.1
2017-Dec-07 14:30N 33°54' E 131°09'5 9.9
2017-Dec-07 14:00N 33°52' E 131°14'510.2
2017-Dec-07 13:30N 33°50' E 131°20'510.2
2017-Dec-07 13:00N 33°49' E 131°26'510.1
2017-Dec-07 12:30N 33°48' E 131°32'510.3
2017-Dec-07 12:00N 33°47' E 131°38'510.3
2017-Dec-07 11:30N 33°46' E 131°44'510.1
2017-Dec-07 11:00N 33°45' E 131°50'33 8.8
2017-Dec-07 07:17N 33°53' E 132°28'1210.5
2017-Dec-07 06:11N 34°04' E 132°34'210.4
2017-Dec-07 06:00N 34°05' E 132°35'5 9.4
2017-Dec-07 05:30N 34°10' E 132°36'3 0.4
2017-Dec-06 22:46N 34°13' E 132°36'1 2.3
2017-Dec-06 22:23N 34°12' E 132°36'1 2.5
2017-Dec-06 22:00N 34°11' E 132°36'4 7.4
2017-Dec-06 21:30N 34°08' E 132°36'4 8.7
2017-Dec-06 21:00N 34°04' E 132°34'  

Dump ship's entire track history